Time;durP1;ratioP1;P1;durP2;ratioP2;P2;SDS_P1;SDS_P2;PMS_P1;PMS_P2;Temp;Humidity;BMP_temperature;BMP_pressure;BME280_temperature;BME280_humidity;BME280_pressure;Samples;Min_cycle;Max_cycle;Signal;HPM_P1;HPM_P2
2021/05/27 00:00:31;;;;;;;7.30;3.58;;;;;;;;;;5108918;28;20575;-67
2021/05/27 00:02:58;;;;;;;6.70;3.10;;;;;;;;;;5108836;28;20553;-69
2021/05/27 00:05:25;;;;;;;6.40;3.45;;;;;;;;;;5108549;28;20031;-68
2021/05/27 00:07:51;;;;;;;4.57;3.40;;;;;;;;;;5108600;28;20034;-67
2021/05/27 00:10:19;;;;;;;5.22;3.47;;;;;;;;;;5108552;28;20109;-69
2021/05/27 00:12:45;;;;;;;4.85;3.35;;;;;;;;;;5110392;28;20031;-69
2021/05/27 00:15:12;;;;;;;5.95;3.00;;;;;;;;;;5112286;28;20032;-69
2021/05/27 00:17:39;;;;;;;5.50;3.95;;;;;;;;;;5112538;28;20038;-68
2021/05/27 00:20:06;;;;;;;5.70;3.53;;;;;;;;;;5112364;28;20051;-68
2021/05/27 00:22:32;;;;;;;5.82;3.47;;;;;;;;;;5112065;28;20031;-68
2021/05/27 00:24:58;;;;;;;6.68;3.40;;;;;;;;;;5112329;28;20151;-68
2021/05/27 00:27:24;;;;;;;5.13;3.60;;;;;;;;;;5112506;28;20843;-70
2021/05/27 00:29:50;;;;;;;3.50;3.20;;;;;;;;;;5110858;28;20035;-69
2021/05/27 00:32:16;;;;;;;4.53;3.00;;;;;;;;;;5091566;28;20035;-68
2021/05/27 00:34:42;;;;;;;3.75;3.05;;;;;;;;;;5091939;28;20020;-68
2021/05/27 00:37:09;;;;;;;5.15;3.50;;;;;;;;;;5091388;28;20024;-68
2021/05/27 00:39:35;;;;;;;3.67;3.17;;;;;;;;;;5091832;28;20024;-68
2021/05/27 00:42:01;;;;;;;5.85;3.60;;;;;;;;;;5091414;28;20486;-68
2021/05/27 00:44:29;;;;;;;5.53;3.35;;;;;;;;;;5091529;28;20028;-69
2021/05/27 00:46:56;;;;;;;5.50;2.85;;;;;;;;;;5092016;28;20164;-68
2021/05/27 00:49:23;;;;;;;4.93;3.90;;;;;;;;;;5091559;28;20032;-69
2021/05/27 00:51:49;;;;;;;7.10;3.70;;;;;;;;;;5091676;28;20051;-68
2021/05/27 00:54:16;;;;;;;3.28;2.90;;;;;;;;;;5095252;28;20020;-68
2021/05/27 00:56:43;;;;;;;6.40;2.67;;;;;;;;;;5111590;28;20027;-69
2021/05/27 00:59:09;;;;;;;5.63;3.38;;;;;;;;;;5111610;28;20023;-67
2021/05/27 01:01:36;;;;;;;3.88;3.05;;;;;;;;;;5111750;28;20032;-69
2021/05/27 01:04:02;;;;;;;4.53;2.80;;;;;;;;;;5108991;28;20024;-68
2021/05/27 01:06:28;;;;;;;4.00;2.90;;;;;;;;;;5090897;28;20047;-69
2021/05/27 01:08:55;;;;;;;3.92;2.88;;;;;;;;;;5090936;28;20061;-69
2021/05/27 01:11:23;;;;;;;4.10;3.17;;;;;;;;;;5091263;28;20048;-68
2021/05/27 01:13:50;;;;;;;3.53;3.17;;;;;;;;;;5098543;28;20028;-69
2021/05/27 01:16:17;;;;;;;6.80;2.90;;;;;;;;;;5111445;28;20046;-68
2021/05/27 01:18:43;;;;;;;3.50;2.90;;;;;;;;;;5111118;28;20102;-68
2021/05/27 01:21:09;;;;;;;6.13;2.70;;;;;;;;;;5107069;28;20691;-68
2021/05/27 01:23:36;;;;;;;4.47;2.78;;;;;;;;;;5090698;28;20363;-68
2021/05/27 01:26:03;;;;;;;3.40;3.10;;;;;;;;;;5095945;28;20015;-68
2021/05/27 01:28:31;;;;;;;4.72;2.65;;;;;;;;;;5111030;28;20020;-68
2021/05/27 01:30:58;;;;;;;3.58;3.20;;;;;;;;;;5111107;28;20032;-69
2021/05/27 01:33:25;;;;;;;4.05;2.97;;;;;;;;;;5110934;28;20036;-68
2021/05/27 01:35:53;;;;;;;4.65;3.45;;;;;;;;;;5110810;28;20028;-68
2021/05/27 01:38:21;;;;;;;4.00;2.70;;;;;;;;;;5109997;28;20039;-68
2021/05/27 01:40:47;;;;;;;4.07;2.70;;;;;;;;;;5111034;28;20362;-68
2021/05/27 01:43:14;;;;;;;4.32;3.20;;;;;;;;;;5110791;28;20035;-69
2021/05/27 01:45:41;;;;;;;4.53;2.83;;;;;;;;;;5110761;28;20096;-67
2021/05/27 01:48:07;;;;;;;3.10;2.80;;;;;;;;;;5110679;28;20077;-67
2021/05/27 01:50:33;;;;;;;4.00;2.92;;;;;;;;;;5110340;28;20071;-68
2021/05/27 01:53:01;;;;;;;4.53;3.28;;;;;;;;;;5110457;28;20035;-69
2021/05/27 01:55:28;;;;;;;4.00;2.72;;;;;;;;;;5106777;28;20038;-67
2021/05/27 01:57:55;;;;;;;5.05;2.60;;;;;;;;;;5090338;28;20055;-68
2021/05/27 02:00:22;;;;;;;3.38;2.33;;;;;;;;;;5071649;28;20525;-68
2021/05/27 02:02:48;;;;;;;4.53;2.80;;;;;;;;;;5090443;28;20123;-69
2021/05/27 02:05:14;;;;;;;3.45;2.60;;;;;;;;;;5090278;28;20031;-67
2021/05/27 02:07:41;;;;;;;3.20;2.47;;;;;;;;;;5089858;28;20031;-68
2021/05/27 02:10:08;;;;;;;3.97;2.53;;;;;;;;;;5089751;28;20052;-69
2021/05/27 02:12:34;;;;;;;4.47;3.53;;;;;;;;;;5090264;28;20036;-68
2021/05/27 02:15:00;;;;;;;3.20;2.60;;;;;;;;;;5107540;28;20024;-68
2021/05/27 02:17:26;;;;;;;5.40;3.50;;;;;;;;;;5109906;28;20035;-68
2021/05/27 02:19:52;;;;;;;4.50;3.03;;;;;;;;;;5109699;28;20031;-69
2021/05/27 02:22:19;;;;;;;3.85;2.63;;;;;;;;;;5109855;28;20027;-67
2021/05/27 02:24:45;;;;;;;2.97;2.67;;;;;;;;;;5110059;28;20138;-68
2021/05/27 02:27:11;;;;;;;3.85;2.55;;;;;;;;;;5109943;28;20031;-69
2021/05/27 02:29:37;;;;;;;4.68;2.80;;;;;;;;;;5114596;27;20817;-69
2021/05/27 02:32:03;;;;;;;3.42;2.50;;;;;;;;;;5110000;28;20039;-68
2021/05/27 02:34:29;;;;;;;3.70;2.50;;;;;;;;;;5109489;28;20121;-68
2021/05/27 02:36:55;;;;;;;3.63;2.63;;;;;;;;;;5109659;28;20020;-68
2021/05/27 02:39:21;;;;;;;4.80;2.70;;;;;;;;;;5109986;28;20023;-68
2021/05/27 02:41:48;;;;;;;5.93;2.83;;;;;;;;;;5109964;28;20031;-68
2021/05/27 02:44:14;;;;;;;3.00;2.55;;;;;;;;;;5109340;28;20036;-67
2021/05/27 02:46:40;;;;;;;4.82;2.75;;;;;;;;;;5108747;28;20024;-68
2021/05/27 02:49:06;;;;;;;3.25;2.67;;;;;;;;;;5109501;28;20509;-68
2021/05/27 02:51:32;;;;;;;3.83;2.63;;;;;;;;;;5109471;28;20110;-68
2021/05/27 02:53:59;;;;;;;3.33;2.60;;;;;;;;;;5109284;28;20504;-68
2021/05/27 02:56:25;;;;;;;3.75;2.97;;;;;;;;;;5098379;28;20580;-69
2021/05/27 02:58:51;;;;;;;4.97;2.70;;;;;;;;;;5089184;28;20020;-67
2021/05/27 03:01:17;;;;;;;3.85;2.70;;;;;;;;;;5070792;28;20020;-69
2021/05/27 03:03:43;;;;;;;3.67;3.10;;;;;;;;;;5089777;28;20040;-68
2021/05/27 03:06:10;;;;;;;5.22;3.38;;;;;;;;;;5089068;28;20055;-68
2021/05/27 03:08:42;;;;;;;5.03;2.85;;;;;;;;;;5088944;28;20028;-67
2021/05/27 03:11:09;;;;;;;4.85;2.67;;;;;;;;;;5088763;28;20076;-67
2021/05/27 03:13:36;;;;;;;3.50;2.58;;;;;;;;;;5094538;28;20458;-68
2021/05/27 03:16:03;;;;;;;4.45;2.70;;;;;;;;;;5109236;28;20471;-69
2021/05/27 03:18:30;;;;;;;3.78;2.97;;;;;;;;;;5109206;28;20038;-67
2021/05/27 03:20:56;;;;;;;7.22;3.08;;;;;;;;;;5099153;28;20122;-69
2021/05/27 03:23:22;;;;;;;5.78;2.85;;;;;;;;;;5089255;28;20111;-68
2021/05/27 03:25:48;;;;;;;3.00;2.70;;;;;;;;;;5096842;28;20592;-67
2021/05/27 03:28:14;;;;;;;6.72;3.03;;;;;;;;;;5109211;28;20035;-67
2021/05/27 03:30:41;;;;;;;5.15;2.90;;;;;;;;;;5109156;28;20106;-68
2021/05/27 03:33:07;;;;;;;3.67;2.63;;;;;;;;;;5109070;28;20112;-68
2021/05/27 03:35:33;;;;;;;3.83;3.08;;;;;;;;;;5109134;28;20470;-69
2021/05/27 03:37:59;;;;;;;3.20;2.78;;;;;;;;;;5098384;28;20031;-68
2021/05/27 03:40:26;;;;;;;4.60;2.97;;;;;;;;;;5088627;28;20028;-68
2021/05/27 03:42:53;;;;;;;3.47;2.75;;;;;;;;;;5088590;28;20036;-68
2021/05/27 03:45:20;;;;;;;3.58;2.95;;;;;;;;;;5088780;28;20039;-68
2021/05/27 03:47:47;;;;;;;4.80;3.00;;;;;;;;;;5091433;28;20081;-67
2021/05/27 03:50:15;;;;;;;3.28;2.83;;;;;;;;;;5092493;28;20172;-68
2021/05/27 03:52:41;;;;;;;4.55;3.05;;;;;;;;;;5092522;28;20028;-68
2021/05/27 03:55:09;;;;;;;5.03;3.65;;;;;;;;;;5093056;28;20053;-68
2021/05/27 03:57:35;;;;;;;3.20;2.85;;;;;;;;;;5099978;28;20064;-68
2021/05/27 04:02:48;;;;;;;4.15;2.95;;;;;;;;;;5092487;28;20605;-68
2021/05/27 04:08:00;;;;;;;4.97;2.78;;;;;;;;;;5092451;28;20039;-68
2021/05/27 04:10:27;;;;;;;4.82;3.30;;;;;;;;;;5091854;28;20117;-69
2021/05/27 04:12:53;;;;;;;5.57;2.90;;;;;;;;;;5110617;28;20119;-68
2021/05/27 04:15:24;;;;;;;4.05;2.88;;;;;;;;;;5092038;28;20031;-67
2021/05/27 04:17:53;;;;;;;3.45;3.13;;;;;;;;;;5091868;28;20510;-67
2021/05/27 04:20:22;;;;;;;4.90;3.75;;;;;;;;;;5091932;28;20399;-69
2021/05/27 04:22:48;;;;;;;4.28;3.10;;;;;;;;;;5073614;28;20030;-67
2021/05/27 04:25:15;;;;;;;3.47;2.92;;;;;;;;;;5091622;28;20062;-69
2021/05/27 04:27:41;;;;;;;6.53;3.75;;;;;;;;;;5110885;28;20032;-68
2021/05/27 04:30:18;;;;;;;3.35;3.03;;;;;;;;;;5091953;28;20398;-68
2021/05/27 04:35:42;;;;;;;3.63;3.00;;;;;;;;;;5073918;28;20136;-68
2021/05/27 04:38:12;;;;;;;3.38;2.97;;;;;;;;;;5091625;28;20028;-68
2021/05/27 04:40:39;;;;;;;5.03;3.20;;;;;;;;;;5091444;28;20031;-68
2021/05/27 04:43:06;;;;;;;5.82;3.33;;;;;;;;;;5091590;28;20478;-67
2021/05/27 04:45:32;;;;;;;3.30;2.75;;;;;;;;;;5091906;28;20126;-68
2021/05/27 04:47:58;;;;;;;4.20;3.08;;;;;;;;;;5091562;28;20028;-68
2021/05/27 04:50:25;;;;;;;5.03;3.25;;;;;;;;;;5073271;28;20032;-68
2021/05/27 04:52:51;;;;;;;5.95;3.70;;;;;;;;;;5072928;28;20492;-68
2021/05/27 04:55:19;;;;;;;4.00;2.90;;;;;;;;;;5092900;28;20028;-68
2021/05/27 04:57:45;;;;;;;3.10;2.80;;;;;;;;;;5097048;28;20497;-69
2021/05/27 05:00:13;;;;;;;3.70;3.00;;;;;;;;;;5091086;28;20059;-69
2021/05/27 05:02:40;;;;;;;7.22;3.60;;;;;;;;;;5098971;28;20027;-68
2021/05/27 05:05:07;;;;;;;6.65;2.72;;;;;;;;;;5111663;28;20023;-68
2021/05/27 05:07:33;;;;;;;4.07;3.30;;;;;;;;;;5111209;28;20495;-69
2021/05/27 05:09:59;;;;;;;4.75;2.72;;;;;;;;;;5092696;28;20055;-68
2021/05/27 05:12:25;;;;;;;5.07;2.97;;;;;;;;;;5111349;28;20070;-69
2021/05/27 05:14:51;;;;;;;4.32;2.70;;;;;;;;;;5111275;28;20023;-68
2021/05/27 05:17:18;;;;;;;3.17;2.47;;;;;;;;;;5111510;28;20024;-67
2021/05/27 05:19:44;;;;;;;3.38;2.60;;;;;;;;;;5110400;28;20031;-68
2021/05/27 05:22:10;;;;;;;3.97;2.30;;;;;;;;;;5111164;28;20034;-67
2021/05/27 05:24:36;;;;;;;2.60;2.40;;;;;;;;;;5111141;28;20450;-67
2021/05/27 05:27:02;;;;;;;2.72;2.20;;;;;;;;;;5111012;28;20095;-68
2021/05/27 05:29:29;;;;;;;3.85;2.50;;;;;;;;;;5110911;28;20055;-68
2021/05/27 05:31:55;;;;;;;2.53;2.33;;;;;;;;;;5110872;28;20031;-68
2021/05/27 05:34:21;;;;;;;5.72;2.47;;;;;;;;;;5110941;28;20024;-68
2021/05/27 05:36:47;;;;;;;4.20;2.30;;;;;;;;;;5101401;28;20099;-68
2021/05/27 05:39:13;;;;;;;3.20;2.22;;;;;;;;;;5090702;28;20483;-69
2021/05/27 05:41:41;;;;;;;5.60;2.42;;;;;;;;;;5090462;28;20060;-68
2021/05/27 05:44:07;;;;;;;3.90;2.20;;;;;;;;;;5090271;28;20024;-67
2021/05/27 05:46:33;;;;;;;4.28;2.17;;;;;;;;;;5090389;28;20521;-68
2021/05/27 05:48:59;;;;;;;3.78;2.28;;;;;;;;;;5090155;28;20106;-68
2021/05/27 05:51:25;;;;;;;4.22;2.10;;;;;;;;;;5089952;28;20510;-68
2021/05/27 05:53:51;;;;;;;2.75;2.10;;;;;;;;;;5090725;28;20428;-69
2021/05/27 05:56:18;;;;;;;3.25;2.88;;;;;;;;;;5091645;28;20023;-68
2021/05/27 05:58:44;;;;;;;5.88;2.17;;;;;;;;;;5110471;28;20595;-68
2021/05/27 06:01:10;;;;;;;2.67;2.20;;;;;;;;;;5110474;28;20134;-68
2021/05/27 06:03:36;;;;;;;3.90;2.40;;;;;;;;;;5110297;28;20034;-69
2021/05/27 06:06:02;;;;;;;3.67;2.50;;;;;;;;;;5110182;28;20088;-69
2021/05/27 06:08:28;;;;;;;3.90;2.67;;;;;;;;;;5109178;28;20096;-68
2021/05/27 06:10:54;;;;;;;3.10;2.80;;;;;;;;;;5093857;28;20049;-68
2021/05/27 06:13:20;;;;;;;3.28;2.80;;;;;;;;;;5093298;28;20019;-68
2021/05/27 06:15:46;;;;;;;3.38;3.00;;;;;;;;;;5099352;28;20479;-67
2021/05/27 06:18:13;;;;;;;2.47;2.28;;;;;;;;;;5104188;28;20154;-67
2021/05/27 06:20:39;;;;;;;3.00;2.10;;;;;;;;;;5104625;28;20027;-68
2021/05/27 06:23:05;;;;;;;2.58;2.15;;;;;;;;;;5101987;28;20027;-68
2021/05/27 06:25:32;;;;;;;2.83;2.53;;;;;;;;;;5109903;28;20031;-68
2021/05/27 06:27:58;;;;;;;3.83;2.30;;;;;;;;;;5103244;28;20023;-68
2021/05/27 06:30:28;;;;;;;3.03;2.20;;;;;;;;;;5109757;28;20107;-67
2021/05/27 06:32:54;;;;;;;4.57;2.38;;;;;;;;;;5109777;28;20043;-68
2021/05/27 06:35:20;;;;;;;3.35;2.30;;;;;;;;;;5109628;28;20050;-68
2021/05/27 06:37:46;;;;;;;4.78;2.50;;;;;;;;;;5109642;28;20406;-68
2021/05/27 06:40:14;;;;;;;6.57;2.50;;;;;;;;;;5109671;28;20555;-68
2021/05/27 06:42:40;;;;;;;4.57;2.70;;;;;;;;;;5109850;28;20030;-69
2021/05/27 06:45:07;;;;;;;4.90;3.40;;;;;;;;;;5098208;28;20028;-67
2021/05/27 06:47:33;;;;;;;5.45;3.00;;;;;;;;;;5089247;28;20035;-68
2021/05/27 06:49:59;;;;;;;7.18;4.57;;;;;;;;;;5088978;28;20107;-67
2021/05/27 06:52:25;;;;;;;5.40;3.80;;;;;;;;;;5088946;28;20039;-68
2021/05/27 06:54:52;;;;;;;11.27;5.18;;;;;;;;;;5089077;28;20153;-69
2021/05/27 06:57:18;;;;;;;16.38;7.63;;;;;;;;;;5107308;28;20076;-70
2021/05/27 06:59:44;;;;;;;8.07;3.83;;;;;;;;;;5107047;28;20035;-68
2021/05/27 07:02:10;;;;;;;9.23;5.13;;;;;;;;;;5095311;28;20031;-68
2021/05/27 07:04:36;;;;;;;8.40;4.13;;;;;;;;;;5101854;28;20031;-69
2021/05/27 07:07:03;;;;;;;6.72;4.10;;;;;;;;;;5103146;28;20035;-68
2021/05/27 07:09:29;;;;;;;9.60;4.75;;;;;;;;;;5099850;28;20052;-69
2021/05/27 07:11:55;;;;;;;5.82;3.75;;;;;;;;;;5107139;28;20082;-70
2021/05/27 07:14:22;;;;;;;6.93;4.20;;;;;;;;;;5102729;28;20080;-70
2021/05/27 07:16:49;;;;;;;6.32;4.90;;;;;;;;;;5105548;28;20023;-70
2021/05/27 07:19:15;;;;;;;6.90;4.10;;;;;;;;;;5107639;28;20424;-69
2021/05/27 07:21:41;;;;;;;8.70;5.57;;;;;;;;;;5101918;28;20505;-68
2021/05/27 07:24:07;;;;;;;8.45;4.07;;;;;;;;;;5096496;28;20081;-70
2021/05/27 07:26:33;;;;;;;6.72;3.70;;;;;;;;;;5094493;28;20032;-70
2021/05/27 07:29:00;;;;;;;5.40;3.65;;;;;;;;;;5104627;28;20032;-70
2021/05/27 07:31:27;;;;;;;5.07;3.88;;;;;;;;;;5094637;28;20028;-68
2021/05/27 07:33:53;;;;;;;8.93;4.25;;;;;;;;;;5103867;28;20547;-69
2021/05/27 07:36:19;;;;;;;4.25;3.47;;;;;;;;;;5108833;28;20047;-69
2021/05/27 07:38:45;;;;;;;6.93;3.40;;;;;;;;;;5105052;28;20027;-70
2021/05/27 07:41:11;;;;;;;7.43;3.78;;;;;;;;;;5100892;28;20024;-70
2021/05/27 07:43:37;;;;;;;5.68;3.45;;;;;;;;;;5104954;28;20715;-71
2021/05/27 07:46:03;;;;;;;4.53;3.67;;;;;;;;;;5093199;28;20028;-69
2021/05/27 07:48:29;;;;;;;4.50;3.47;;;;;;;;;;5107892;28;20181;-68
2021/05/27 07:50:55;;;;;;;6.93;4.40;;;;;;;;;;5106190;28;20032;-69
2021/05/27 07:53:22;;;;;;;8.82;5.57;;;;;;;;;;5093106;28;20028;-71
2021/05/27 07:55:49;;;;;;;6.07;3.78;;;;;;;;;;5093201;28;20016;-71
2021/05/27 07:58:15;;;;;;;4.30;3.65;;;;;;;;;;5094819;28;20055;-70
2021/05/27 08:00:41;;;;;;;6.88;3.85;;;;;;;;;;5101875;28;20070;-69
2021/05/27 08:03:07;;;;;;;5.85;3.78;;;;;;;;;;5102034;28;20023;-71
2021/05/27 08:05:35;;;;;;;9.48;4.38;;;;;;;;;;5097234;28;20055;-70
2021/05/27 08:08:01;;;;;;;6.07;3.88;;;;;;;;;;5098245;28;20070;-72
2021/05/27 08:10:28;;;;;;;4.80;3.47;;;;;;;;;;5096403;28;20055;-72
2021/05/27 08:12:54;;;;;;;5.30;3.80;;;;;;;;;;5107733;28;20035;-71
2021/05/27 08:15:20;;;;;;;4.50;3.60;;;;;;;;;;5106456;28;20028;-70
2021/05/27 08:17:46;;;;;;;7.20;3.63;;;;;;;;;;5104873;28;20460;-70
2021/05/27 08:20:12;;;;;;;4.40;3.35;;;;;;;;;;5102714;28;20023;-72
2021/05/27 08:22:38;;;;;;;5.72;3.60;;;;;;;;;;5094445;28;20024;-71
2021/05/27 08:25:05;;;;;;;5.75;3.38;;;;;;;;;;5092735;28;20052;-68
2021/05/27 08:27:32;;;;;;;6.07;3.95;;;;;;;;;;5096599;28;20055;-69
2021/05/27 08:29:59;;;;;;;5.85;4.05;;;;;;;;;;5108896;28;20046;-70
2021/05/27 08:32:26;;;;;;;4.88;3.90;;;;;;;;;;5109705;28;20024;-69
2021/05/27 08:34:52;;;;;;;6.60;3.65;;;;;;;;;;5106544;28;20038;-71
2021/05/27 08:37:18;;;;;;;7.68;4.00;;;;;;;;;;5110915;28;20065;-71
2021/05/27 08:39:44;;;;;;;6.38;3.65;;;;;;;;;;5111658;28;20031;-71
2021/05/27 08:42:10;;;;;;;6.30;3.92;;;;;;;;;;5095515;28;20412;-68
2021/05/27 08:44:37;;;;;;;7.03;3.30;;;;;;;;;;5103209;28;20039;-73
2021/05/27 08:47:03;;;;;;;7.90;3.40;;;;;;;;;;5103489;28;20032;-71
2021/05/27 08:49:29;;;;;;;6.35;3.95;;;;;;;;;;5104263;28;20035;-71
2021/05/27 08:51:55;;;;;;;6.35;3.88;;;;;;;;;;5095155;28;20028;-68
2021/05/27 08:54:22;;;;;;;6.57;4.13;;;;;;;;;;5103099;28;20024;-70
2021/05/27 08:56:48;;;;;;;7.93;4.18;;;;;;;;;;5098083;28;20081;-69
2021/05/27 08:59:14;;;;;;;4.03;3.42;;;;;;;;;;5093058;28;20024;-70
2021/05/27 09:01:59;;;;;;;4.57;3.30;;;;;;;;;;5104143;28;20039;-69
2021/05/27 09:04:25;;;;;;;4.43;3.67;;;;;;;;;;5101031;28;20127;-69
2021/05/27 09:06:51;;;;;;;5.25;3.42;;;;;;;;;;5096494;28;20157;-72
2021/05/27 09:09:17;;;;;;;6.95;3.50;;;;;;;;;;5102549;28;20040;-69
2021/05/27 09:11:46;;;;;;;5.63;3.00;;;;;;;;;;5100570;28;20035;-69
2021/05/27 09:14:13;;;;;;;5.63;2.95;;;;;;;;;;5102128;28;20030;-70
2021/05/27 09:16:55;;;;;;;4.65;3.08;;;;;;;;;;5103059;28;20027;-68
2021/05/27 09:19:22;;;;;;;4.93;3.05;;;;;;;;;;5101018;28;20027;-69
2021/05/27 09:21:48;;;;;;;5.25;3.40;;;;;;;;;;5095254;28;20036;-70
2021/05/27 09:24:14;;;;;;;5.93;3.35;;;;;;;;;;5090878;28;20064;-69
2021/05/27 09:26:53;;;;;;;4.10;3.03;;;;;;;;;;5091619;28;20390;-71
2021/05/27 09:29:20;;;;;;;5.07;3.17;;;;;;;;;;5095648;28;20327;-70
2021/05/27 09:31:59;;;;;;;4.63;3.03;;;;;;;;;;5094618;28;20036;-69
2021/05/27 09:34:45;;;;;;;4.88;2.50;;;;;;;;;;5104871;28;20062;-69
2021/05/27 09:37:21;;;;;;;3.92;2.63;;;;;;;;;;5090775;28;20084;-70
2021/05/27 09:39:49;;;;;;;3.25;2.60;;;;;;;;;;5096355;28;20028;-71
2021/05/27 09:42:15;;;;;;;2.85;2.40;;;;;;;;;;5103882;28;20088;-70
2021/05/27 09:44:41;;;;;;;2.80;2.00;;;;;;;;;;5104013;28;20035;-69
2021/05/27 09:47:08;;;;;;;3.60;2.10;;;;;;;;;;5093426;28;20076;-70
2021/05/27 09:49:34;;;;;;;3.47;2.00;;;;;;;;;;5090390;28;20028;-71
2021/05/27 09:52:19;;;;;;;2.28;1.98;;;;;;;;;;5096649;28;20379;-70
2021/05/27 09:54:59;;;;;;;3.15;2.20;;;;;;;;;;5098681;28;20066;-69
2021/05/27 09:57:28;;;;;;;4.00;2.10;;;;;;;;;;5108735;28;20098;-69
2021/05/27 09:59:55;;;;;;;3.53;2.00;;;;;;;;;;5100914;28;20575;-70
2021/05/27 10:02:22;;;;;;;4.68;2.58;;;;;;;;;;5104322;28;20031;-68
2021/05/27 10:04:54;;;;;;;3.38;2.40;;;;;;;;;;5104911;28;20102;-68
2021/05/27 10:07:40;;;;;;;3.25;1.88;;;;;;;;;;5109445;28;20085;-70
2021/05/27 10:10:08;;;;;;;2.70;1.80;;;;;;;;;;5105967;28;20047;-68
2021/05/27 10:12:37;;;;;;;2.22;1.80;;;;;;;;;;5104682;28;20044;-68
2021/05/27 10:15:03;;;;;;;3.30;1.83;;;;;;;;;;5100787;28;20031;-68
2021/05/27 10:17:30;;;;;;;2.38;1.90;;;;;;;;;;5092265;28;20085;-70
2021/05/27 10:19:56;;;;;;;2.63;1.75;;;;;;;;;;5110271;28;20024;-70
2021/05/27 10:22:22;;;;;;;5.65;1.95;;;;;;;;;;5093456;28;20063;-68
2021/05/27 10:24:48;;;;;;;1.95;1.75;;;;;;;;;;5097386;28;20032;-69
2021/05/27 10:27:15;;;;;;;3.55;1.80;;;;;;;;;;5106322;28;20055;-69
2021/05/27 10:29:41;;;;;;;2.10;1.80;;;;;;;;;;5089931;28;20085;-68
2021/05/27 10:32:09;;;;;;;3.10;1.90;;;;;;;;;;5093174;28;20082;-71
2021/05/27 10:34:46;;;;;;;2.58;1.77;;;;;;;;;;5093051;28;20116;-67
2021/05/27 10:37:12;;;;;;;2.78;1.85;;;;;;;;;;5089981;28;20067;-69
2021/05/27 10:39:39;;;;;;;2.35;1.80;;;;;;;;;;5103764;28;20046;-69
2021/05/27 10:42:05;;;;;;;4.75;2.03;;;;;;;;;;5107508;28;20032;-69
2021/05/27 10:44:32;;;;;;;2.17;1.90;;;;;;;;;;5108966;28;20023;-71
2021/05/27 10:46:58;;;;;;;2.05;1.83;;;;;;;;;;5095377;28;20106;-70
2021/05/27 10:49:44;;;;;;;3.47;1.90;;;;;;;;;;5099488;28;20040;-71
2021/05/27 10:52:26;;;;;;;2.72;1.85;;;;;;;;;;5076117;28;20403;-70
2021/05/27 10:54:52;;;;;;;2.67;1.77;;;;;;;;;;5091256;28;20032;-71
2021/05/27 10:57:37;;;;;;;4.22;1.70;;;;;;;;;;5089250;28;20497;-70
2021/05/27 11:00:04;;;;;;;2.33;1.90;;;;;;;;;;5094053;28;20683;-68
2021/05/27 11:02:30;;;;;;;11.32;1.98;;;;;;;;;;5079731;28;20040;-70
2021/05/27 11:05:24;;;;;;;3.47;1.80;;;;;;;;;;5094183;28;20509;-68
2021/05/27 11:08:08;;;;;;;3.53;1.80;;;;;;;;;;5106566;28;20756;-70
2021/05/27 11:10:34;;;;;;;1.85;1.70;;;;;;;;;;5100007;28;20056;-67
2021/05/27 11:13:02;;;;;;;2.75;1.75;;;;;;;;;;5093350;28;20063;-68
2021/05/27 11:15:28;;;;;;;1.73;1.63;;;;;;;;;;5089878;28;20437;-68
2021/05/27 11:18:07;;;;;;;4.30;1.92;;;;;;;;;;5093901;28;20071;-68
2021/05/27 11:20:34;;;;;;;2.78;1.60;;;;;;;;;;5091884;28;20741;-70
2021/05/27 11:23:18;;;;;;;2.72;1.75;;;;;;;;;;5089627;28;20017;-67
2021/05/27 11:25:44;;;;;;;2.25;1.60;;;;;;;;;;5096853;28;20039;-70
2021/05/27 11:28:13;;;;;;;3.70;1.88;;;;;;;;;;5091017;28;20077;-70
2021/05/27 11:30:40;;;;;;;2.30;1.70;;;;;;;;;;5104076;28;20193;-69
2021/05/27 11:33:12;;;;;;;1.75;1.65;;;;;;;;;;5091146;28;20498;-69
2021/05/27 11:35:38;;;;;;;2.05;1.80;;;;;;;;;;5091119;28;20082;-70
2021/05/27 11:38:24;;;;;;;2.28;1.80;;;;;;;;;;5088942;28;20043;-70
2021/05/27 11:40:52;;;;;;;2.20;1.60;;;;;;;;;;5095908;28;20036;-69
2021/05/27 11:43:20;;;;;;;2.40;1.80;;;;;;;;;;5094567;28;20564;-70
2021/05/27 11:45:48;;;;;;;2.30;2.00;;;;;;;;;;5090149;28;20039;-69
2021/05/27 11:48:30;;;;;;;2.53;1.70;;;;;;;;;;5096117;28;20020;-69
2021/05/27 11:51:01;;;;;;;2.55;2.13;;;;;;;;;;5094301;28;20055;-71
2021/05/27 11:53:28;;;;;;;3.78;1.75;;;;;;;;;;5103158;28;20059;-70
2021/05/27 11:55:55;;;;;;;2.45;2.10;;;;;;;;;;5093944;28;20059;-72
2021/05/27 11:58:34;;;;;;;3.25;2.15;;;;;;;;;;5104154;28;20035;-70
2021/05/27 12:01:13;;;;;;;1.88;1.73;;;;;;;;;;5095593;28;20098;-71
2021/05/27 12:03:39;;;;;;;4.63;1.83;;;;;;;;;;5107483;28;20067;-70
2021/05/27 12:06:05;;;;;;;3.75;2.05;;;;;;;;;;5097624;28;20046;-70
2021/05/27 12:08:40;;;;;;;3.97;1.90;;;;;;;;;;5095524;28;20560;-69
2021/05/27 12:11:06;;;;;;;3.55;1.90;;;;;;;;;;5092553;28;20135;-69
2021/05/27 12:13:32;;;;;;;2.35;1.80;;;;;;;;;;5097530;28;20101;-69
2021/05/27 12:15:59;;;;;;;2.58;1.90;;;;;;;;;;5112521;28;20024;-69
2021/05/27 12:18:25;;;;;;;2.10;1.90;;;;;;;;;;5112771;28;20055;-69
2021/05/27 12:20:51;;;;;;;2.20;1.80;;;;;;;;;;5112793;28;20031;-69
2021/05/27 12:23:18;;;;;;;2.90;1.90;;;;;;;;;;5112425;28;20489;-69
2021/05/27 12:25:48;;;;;;;3.83;1.95;;;;;;;;;;5094896;28;20483;-69
2021/05/27 12:28:18;;;;;;;3.35;2.70;;;;;;;;;;5096369;28;20513;-69
2021/05/27 12:30:54;;;;;;;3.13;2.00;;;;;;;;;;5091704;28;20402;-70
2021/05/27 12:33:20;;;;;;;3.67;2.20;;;;;;;;;;5095884;28;20032;-69
2021/05/27 12:35:46;;;;;;;3.70;3.33;;;;;;;;;;5097140;28;20032;-68
2021/05/27 12:38:20;;;;;;;4.47;2.20;;;;;;;;;;5091843;28;20032;-70
2021/05/27 12:40:47;;;;;;;6.10;2.50;;;;;;;;;;5092210;28;20023;-69
2021/05/27 12:43:24;;;;;;;4.63;2.20;;;;;;;;;;5091780;28;20483;-69
2021/05/27 12:45:51;;;;;;;2.65;2.45;;;;;;;;;;5101705;28;20027;-70
2021/05/27 12:48:18;;;;;;;4.15;1.95;;;;;;;;;;5110275;28;20024;-69
2021/05/27 12:50:46;;;;;;;2.63;1.95;;;;;;;;;;5099402;28;20031;-69
2021/05/27 12:53:31;;;;;;;5.18;2.03;;;;;;;;;;5104577;28;20032;-70
2021/05/27 12:56:10;;;;;;;3.15;1.88;;;;;;;;;;5097706;28;20021;-72
2021/05/27 12:58:37;;;;;;;2.72;1.92;;;;;;;;;;5101507;28;20389;-70
2021/05/27 13:01:04;;;;;;;4.28;2.50;;;;;;;;;;5098600;28;20517;-70
2021/05/27 13:03:30;;;;;;;3.80;2.10;;;;;;;;;;5092494;28;20036;-72
2021/05/27 13:06:04;;;;;;;4.22;1.90;;;;;;;;;;5109423;28;20439;-68
2021/05/27 13:08:31;;;;;;;3.20;2.08;;;;;;;;;;5109129;28;20038;-70
2021/05/27 13:10:57;;;;;;;3.13;2.20;;;;;;;;;;5091561;28;20138;-71
2021/05/27 13:13:33;;;;;;;4.70;2.53;;;;;;;;;;5090993;28;20035;-69
2021/05/27 13:15:59;;;;;;;2.60;1.90;;;;;;;;;;5100861;28;20031;-71
2021/05/27 13:18:25;;;;;;;4.03;2.10;;;;;;;;;;5095070;28;20524;-69
2021/05/27 13:20:52;;;;;;;3.45;2.45;;;;;;;;;;5094751;28;20032;-70
2021/05/27 13:23:22;;;;;;;7.05;2.33;;;;;;;;;;5079298;28;20027;-71
2021/05/27 13:25:48;;;;;;;3.63;2.28;;;;;;;;;;5090829;28;20024;-71
2021/05/27 13:28:24;;;;;;;3.72;2.40;;;;;;;;;;5099940;28;20085;-69
2021/05/27 13:30:51;;;;;;;5.60;2.30;;;;;;;;;;5107311;28;20035;-69
2021/05/27 13:33:18;;;;;;;3.67;2.13;;;;;;;;;;5103798;28;20024;-69
2021/05/27 13:35:45;;;;;;;4.88;2.50;;;;;;;;;;5103819;28;20028;-70
2021/05/27 13:38:13;;;;;;;4.70;2.50;;;;;;;;;;5105028;28;20155;-71
2021/05/27 13:40:39;;;;;;;3.17;2.20;;;;;;;;;;5091869;28;20475;-71
2021/05/27 13:43:08;;;;;;;3.78;2.33;;;;;;;;;;5100235;28;20036;-67
2021/05/27 13:45:34;;;;;;;4.50;2.33;;;;;;;;;;5111151;28;20028;-70
2021/05/27 13:48:00;;;;;;;5.72;2.30;;;;;;;;;;5107919;28;20123;-71
2021/05/27 13:50:30;;;;;;;3.70;2.40;;;;;;;;;;5096308;28;20031;-68
2021/05/27 13:53:04;;;;;;;3.03;2.30;;;;;;;;;;5090853;28;20497;-66
2021/05/27 13:55:32;;;;;;;3.45;2.30;;;;;;;;;;5098451;28;20023;-70
2021/05/27 13:58:00;;;;;;;3.97;2.10;;;;;;;;;;5094535;28;20479;-69
2021/05/27 14:00:26;;;;;;;4.22;2.65;;;;;;;;;;5099644;28;20035;-68
2021/05/27 14:02:52;;;;;;;3.50;2.05;;;;;;;;;;5106295;28;20382;-70
2021/05/27 14:05:19;;;;;;;3.08;2.10;;;;;;;;;;5100454;28;20712;-70
2021/05/27 14:07:45;;;;;;;5.30;2.33;;;;;;;;;;5106395;28;20111;-68
2021/05/27 14:10:11;;;;;;;3.38;2.30;;;;;;;;;;5097688;28;20063;-69
2021/05/27 14:12:37;;;;;;;7.60;2.65;;;;;;;;;;5095083;28;20043;-67
2021/05/27 14:15:03;;;;;;;4.55;2.40;;;;;;;;;;5093855;28;20031;-70
2021/05/27 14:17:30;;;;;;;2.97;2.50;;;;;;;;;;5094542;28;20024;-71
2021/05/27 14:19:56;;;;;;;2.90;2.15;;;;;;;;;;5103444;28;20479;-71
2021/05/27 14:22:22;;;;;;;4.70;2.40;;;;;;;;;;5110291;28;20038;-70
2021/05/27 14:24:48;;;;;;;7.88;3.28;;;;;;;;;;5101294;28;20031;-70
2021/05/27 14:27:14;;;;;;;4.78;2.50;;;;;;;;;;5108190;28;20040;-71
2021/05/27 14:29:40;;;;;;;3.90;2.55;;;;;;;;;;5114751;27;20119;-70
2021/05/27 14:32:06;;;;;;;3.70;2.25;;;;;;;;;;5104041;27;20633;-70
2021/05/27 14:34:33;;;;;;;4.55;2.78;;;;;;;;;;5110034;28;20024;-70
2021/05/27 14:36:59;;;;;;;3.40;2.40;;;;;;;;;;5099231;28;20024;-68
2021/05/27 14:39:25;;;;;;;3.10;2.40;;;;;;;;;;5093164;28;20028;-69
2021/05/27 14:41:53;;;;;;;4.00;2.55;;;;;;;;;;5097572;28;20034;-69
2021/05/27 14:44:20;;;;;;;4.15;2.30;;;;;;;;;;5107462;28;20027;-70
2021/05/27 14:46:46;;;;;;;3.60;2.88;;;;;;;;;;5096678;28;20064;-70
2021/05/27 14:49:12;;;;;;;3.40;2.92;;;;;;;;;;5095621;28;20494;-71
2021/05/27 14:51:38;;;;;;;7.10;4.53;;;;;;;;;;5096679;28;20160;-70
2021/05/27 14:54:05;;;;;;;4.28;2.60;;;;;;;;;;5093398;28;20028;-70